sensor_id;sensor_type;location;lat;lon;timestamp;P1;durP1;ratioP1;P2;durP2;ratioP2
13693;SDS011;6919;52.344;14.518;2022-12-07T00:01:44;0.57;;;0.57;;
13693;SDS011;6919;52.344;14.518;2022-12-07T00:04:14;0.60;;;0.60;;
13693;SDS011;6919;52.344;14.518;2022-12-07T00:06:45;0.70;;;0.70;;
13693;SDS011;6919;52.344;14.518;2022-12-07T00:09:20;0.43;;;0.43;;
13693;SDS011;6919;52.344;14.518;2022-12-07T00:11:49;0.67;;;0.67;;
13693;SDS011;6919;52.344;14.518;2022-12-07T00:14:19;0.80;;;0.80;;
13693;SDS011;6919;52.344;14.518;2022-12-07T00:16:48;0.60;;;0.60;;
13693;SDS011;6919;52.344;14.518;2022-12-07T00:19:18;1.30;;;0.50;;
13693;SDS011;6919;52.344;14.518;2022-12-07T00:21:46;0.53;;;0.53;;
13693;SDS011;6919;52.344;14.518;2022-12-07T00:24:15;0.87;;;0.80;;
13693;SDS011;6919;52.344;14.518;2022-12-07T00:26:44;0.30;;;0.30;;
13693;SDS011;6919;52.344;14.518;2022-12-07T00:29:14;1.30;;;1.23;;
13693;SDS011;6919;52.344;14.518;2022-12-07T00:31:45;0.60;;;0.60;;
13693;SDS011;6919;52.344;14.518;2022-12-07T00:34:14;0.40;;;0.40;;
13693;SDS011;6919;52.344;14.518;2022-12-07T00:36:45;0.43;;;0.43;;
13693;SDS011;6919;52.344;14.518;2022-12-07T00:39:14;0.70;;;0.70;;
13693;SDS011;6919;52.344;14.518;2022-12-07T00:41:44;0.67;;;0.67;;
13693;SDS011;6919;52.344;14.518;2022-12-07T00:44:12;0.70;;;0.70;;
13693;SDS011;6919;52.344;14.518;2022-12-07T00:46:41;0.67;;;0.67;;
13693;SDS011;6919;52.344;14.518;2022-12-07T00:49:11;0.40;;;0.40;;
13693;SDS011;6919;52.344;14.518;2022-12-07T00:51:39;0.77;;;0.77;;
13693;SDS011;6919;52.344;14.518;2022-12-07T00:54:08;0.87;;;0.87;;
13693;SDS011;6919;52.344;14.518;2022-12-07T00:56:36;0.73;;;0.73;;
13693;SDS011;6919;52.344;14.518;2022-12-07T00:59:05;0.60;;;0.60;;
13693;SDS011;6919;52.344;14.518;2022-12-07T01:01:34;0.50;;;0.50;;
13693;SDS011;6919;52.344;14.518;2022-12-07T01:04:04;0.67;;;0.67;;
13693;SDS011;6919;52.344;14.518;2022-12-07T01:06:33;0.77;;;0.77;;
13693;SDS011;6919;52.344;14.518;2022-12-07T01:09:02;0.40;;;0.40;;
13693;SDS011;6919;52.344;14.518;2022-12-07T01:11:32;0.77;;;0.77;;
13693;SDS011;6919;52.344;14.518;2022-12-07T01:14:00;1.03;;;0.60;;
13693;SDS011;6919;52.344;14.518;2022-12-07T01:16:31;0.97;;;0.83;;
13693;SDS011;6919;52.344;14.518;2022-12-07T01:19:00;0.50;;;0.50;;
13693;SDS011;6919;52.344;14.518;2022-12-07T01:21:31;1.70;;;1.00;;
13693;SDS011;6919;52.344;14.518;2022-12-07T01:24:04;0.30;;;0.30;;
13693;SDS011;6919;52.344;14.518;2022-12-07T01:26:36;0.80;;;0.80;;
13693;SDS011;6919;52.344;14.518;2022-12-07T01:29:05;0.40;;;0.40;;
13693;SDS011;6919;52.344;14.518;2022-12-07T01:31:34;0.83;;;0.83;;
13693;SDS011;6919;52.344;14.518;2022-12-07T01:34:03;0.33;;;0.33;;
13693;SDS011;6919;52.344;14.518;2022-12-07T01:36:32;0.30;;;0.30;;
13693;SDS011;6919;52.344;14.518;2022-12-07T01:39:03;0.60;;;0.60;;
13693;SDS011;6919;52.344;14.518;2022-12-07T01:41:34;0.30;;;0.30;;
13693;SDS011;6919;52.344;14.518;2022-12-07T01:44:07;0.67;;;0.67;;
13693;SDS011;6919;52.344;14.518;2022-12-07T01:46:42;0.63;;;0.63;;
13693;SDS011;6919;52.344;14.518;2022-12-07T01:49:12;0.97;;;0.80;;
13693;SDS011;6919;52.344;14.518;2022-12-07T01:51:51;1.17;;;1.07;;
13693;SDS011;6919;52.344;14.518;2022-12-07T01:54:27;0.40;;;0.40;;
13693;SDS011;6919;52.344;14.518;2022-12-07T01:56:55;0.50;;;0.50;;
13693;SDS011;6919;52.344;14.518;2022-12-07T01:59:26;0.50;;;0.50;;
13693;SDS011;6919;52.344;14.518;2022-12-07T02:01:56;0.63;;;0.63;;
13693;SDS011;6919;52.344;14.518;2022-12-07T02:04:24;0.70;;;0.70;;
13693;SDS011;6919;52.344;14.518;2022-12-07T02:06:53;0.50;;;0.50;;
13693;SDS011;6919;52.344;14.518;2022-12-07T02:09:26;1.10;;;1.07;;
13693;SDS011;6919;52.344;14.518;2022-12-07T02:11:54;1.17;;;0.70;;
13693;SDS011;6919;52.344;14.518;2022-12-07T02:14:23;0.40;;;0.40;;
13693;SDS011;6919;52.344;14.518;2022-12-07T02:16:54;0.63;;;0.63;;
13693;SDS011;6919;52.344;14.518;2022-12-07T02:20:00;0.83;;;0.83;;
13693;SDS011;6919;52.344;14.518;2022-12-07T02:22:51;0.70;;;0.70;;
13693;SDS011;6919;52.344;14.518;2022-12-07T02:29:19;0.60;;;0.60;;
13693;SDS011;6919;52.344;14.518;2022-12-07T02:31:54;0.87;;;0.87;;
13693;SDS011;6919;52.344;14.518;2022-12-07T02:34:34;0.50;;;0.50;;
13693;SDS011;6919;52.344;14.518;2022-12-07T02:37:16;0.90;;;0.90;;
13693;SDS011;6919;52.344;14.518;2022-12-07T02:40:00;0.50;;;0.50;;
13693;SDS011;6919;52.344;14.518;2022-12-07T02:42:38;1.43;;;1.33;;
13693;SDS011;6919;52.344;14.518;2022-12-07T02:45:15;0.57;;;0.57;;
13693;SDS011;6919;52.344;14.518;2022-12-07T02:47:48;0.50;;;0.50;;
13693;SDS011;6919;52.344;14.518;2022-12-07T02:50:24;0.93;;;0.80;;
13693;SDS011;6919;52.344;14.518;2022-12-07T02:52:54;0.50;;;0.50;;
13693;SDS011;6919;52.344;14.518;2022-12-07T02:55:25;0.60;;;0.60;;
13693;SDS011;6919;52.344;14.518;2022-12-07T03:01:02;0.53;;;0.53;;
13693;SDS011;6919;52.344;14.518;2022-12-07T03:03:53;0.50;;;0.50;;
13693;SDS011;6919;52.344;14.518;2022-12-07T03:06:42;0.30;;;0.30;;
13693;SDS011;6919;52.344;14.518;2022-12-07T03:09:20;1.20;;;1.10;;
13693;SDS011;6919;52.344;14.518;2022-12-07T03:11:58;1.90;;;1.17;;
13693;SDS011;6919;52.344;14.518;2022-12-07T03:14:38;1.17;;;1.17;;
13693;SDS011;6919;52.344;14.518;2022-12-07T03:17:16;1.33;;;1.23;;
13693;SDS011;6919;52.344;14.518;2022-12-07T03:19:51;0.80;;;0.73;;
13693;SDS011;6919;52.344;14.518;2022-12-07T03:22:26;0.60;;;0.60;;
13693;SDS011;6919;52.344;14.518;2022-12-07T03:25:02;0.90;;;0.90;;
13693;SDS011;6919;52.344;14.518;2022-12-07T03:27:37;0.50;;;0.50;;
13693;SDS011;6919;52.344;14.518;2022-12-07T03:30:12;0.70;;;0.70;;
13693;SDS011;6919;52.344;14.518;2022-12-07T03:32:48;1.10;;;1.00;;
13693;SDS011;6919;52.344;14.518;2022-12-07T03:35:24;0.67;;;0.67;;
13693;SDS011;6919;52.344;14.518;2022-12-07T03:38:00;0.50;;;0.50;;
13693;SDS011;6919;52.344;14.518;2022-12-07T03:40:40;0.80;;;0.80;;
13693;SDS011;6919;52.344;14.518;2022-12-07T03:43:17;0.60;;;0.60;;
13693;SDS011;6919;52.344;14.518;2022-12-07T03:45:48;0.60;;;0.60;;
13693;SDS011;6919;52.344;14.518;2022-12-07T03:48:32;0.30;;;0.30;;
13693;SDS011;6919;52.344;14.518;2022-12-07T03:51:07;0.80;;;0.80;;
13693;SDS011;6919;52.344;14.518;2022-12-07T03:53:46;1.10;;;0.83;;
13693;SDS011;6919;52.344;14.518;2022-12-07T03:56:22;0.80;;;0.80;;
13693;SDS011;6919;52.344;14.518;2022-12-07T03:58:53;0.60;;;0.60;;
13693;SDS011;6919;52.344;14.518;2022-12-07T04:01:22;0.60;;;0.60;;
13693;SDS011;6919;52.344;14.518;2022-12-07T04:03:52;0.83;;;0.83;;
13693;SDS011;6919;52.344;14.518;2022-12-07T04:06:20;0.63;;;0.63;;
13693;SDS011;6919;52.344;14.518;2022-12-07T04:08:49;0.90;;;0.87;;
13693;SDS011;6919;52.344;14.518;2022-12-07T04:11:17;0.70;;;0.70;;
13693;SDS011;6919;52.344;14.518;2022-12-07T04:13:46;0.50;;;0.50;;
13693;SDS011;6919;52.344;14.518;2022-12-07T04:16:31;0.63;;;0.63;;
13693;SDS011;6919;52.344;14.518;2022-12-07T04:19:09;0.70;;;0.70;;
13693;SDS011;6919;52.344;14.518;2022-12-07T04:21:37;0.80;;;0.80;;
13693;SDS011;6919;52.344;14.518;2022-12-07T04:24:06;0.60;;;0.60;;
13693;SDS011;6919;52.344;14.518;2022-12-07T04:26:34;0.93;;;0.93;;
13693;SDS011;6919;52.344;14.518;2022-12-07T04:29:03;0.80;;;0.80;;
13693;SDS011;6919;52.344;14.518;2022-12-07T04:31:33;1.50;;;1.40;;
13693;SDS011;6919;52.344;14.518;2022-12-07T04:34:02;1.40;;;1.30;;
13693;SDS011;6919;52.344;14.518;2022-12-07T04:36:32;1.87;;;1.63;;
13693;SDS011;6919;52.344;14.518;2022-12-07T04:39:02;2.07;;;1.50;;
13693;SDS011;6919;52.344;14.518;2022-12-07T04:41:31;5.60;;;4.30;;
13693;SDS011;6919;52.344;14.518;2022-12-07T04:44:01;5.97;;;4.67;;
13693;SDS011;6919;52.344;14.518;2022-12-07T04:46:33;3.73;;;3.43;;
13693;SDS011;6919;52.344;14.518;2022-12-07T04:49:01;0.60;;;0.60;;
13693;SDS011;6919;52.344;14.518;2022-12-07T04:51:29;1.23;;;1.23;;
13693;SDS011;6919;52.344;14.518;2022-12-07T04:53:59;2.00;;;1.87;;
13693;SDS011;6919;52.344;14.518;2022-12-07T04:56:27;4.37;;;3.20;;
13693;SDS011;6919;52.344;14.518;2022-12-07T04:58:56;6.57;;;3.63;;
13693;SDS011;6919;52.344;14.518;2022-12-07T05:01:24;18.27;;;9.47;;
13693;SDS011;6919;52.344;14.518;2022-12-07T05:03:52;14.70;;;6.50;;
13693;SDS011;6919;52.344;14.518;2022-12-07T05:06:20;3.17;;;2.87;;
13693;SDS011;6919;52.344;14.518;2022-12-07T05:08:49;27.50;;;8.27;;
13693;SDS011;6919;52.344;14.518;2022-12-07T05:11:18;10.90;;;5.20;;
13693;SDS011;6919;52.344;14.518;2022-12-07T05:14:14;8.93;;;5.13;;
13693;SDS011;6919;52.344;14.518;2022-12-07T05:16:45;8.87;;;3.80;;
13693;SDS011;6919;52.344;14.518;2022-12-07T05:19:17;5.70;;;5.27;;
13693;SDS011;6919;52.344;14.518;2022-12-07T05:21:46;4.40;;;3.63;;
13693;SDS011;6919;52.344;14.518;2022-12-07T05:24:15;8.60;;;4.03;;
13693;SDS011;6919;52.344;14.518;2022-12-07T05:26:45;6.60;;;4.10;;
13693;SDS011;6919;52.344;14.518;2022-12-07T05:29:14;7.27;;;4.10;;
13693;SDS011;6919;52.344;14.518;2022-12-07T05:31:44;5.80;;;4.80;;
13693;SDS011;6919;52.344;14.518;2022-12-07T05:34:12;3.20;;;2.20;;
13693;SDS011;6919;52.344;14.518;2022-12-07T05:36:41;6.40;;;2.57;;
13693;SDS011;6919;52.344;14.518;2022-12-07T05:39:09;4.03;;;2.43;;
13693;SDS011;6919;52.344;14.518;2022-12-07T05:41:38;1.40;;;1.30;;
13693;SDS011;6919;52.344;14.518;2022-12-07T05:44:25;2.17;;;2.03;;
13693;SDS011;6919;52.344;14.518;2022-12-07T05:46:53;6.20;;;1.93;;
13693;SDS011;6919;52.344;14.518;2022-12-07T05:49:22;3.37;;;2.77;;
13693;SDS011;6919;52.344;14.518;2022-12-07T05:51:50;2.00;;;1.80;;
13693;SDS011;6919;52.344;14.518;2022-12-07T05:54:18;3.10;;;2.80;;
13693;SDS011;6919;52.344;14.518;2022-12-07T05:56:46;1.53;;;1.43;;
13693;SDS011;6919;52.344;14.518;2022-12-07T05:59:15;0.80;;;0.80;;
13693;SDS011;6919;52.344;14.518;2022-12-07T06:01:50;0.60;;;0.60;;
13693;SDS011;6919;52.344;14.518;2022-12-07T06:04:20;0.50;;;0.50;;
13693;SDS011;6919;52.344;14.518;2022-12-07T06:06:49;0.80;;;0.80;;
13693;SDS011;6919;52.344;14.518;2022-12-07T06:09:17;4.53;;;1.47;;
13693;SDS011;6919;52.344;14.518;2022-12-07T06:11:46;1.37;;;1.27;;
13693;SDS011;6919;52.344;14.518;2022-12-07T06:14:32;0.80;;;0.80;;
13693;SDS011;6919;52.344;14.518;2022-12-07T06:17:02;1.70;;;1.33;;
13693;SDS011;6919;52.344;14.518;2022-12-07T06:19:31;1.37;;;1.27;;
13693;SDS011;6919;52.344;14.518;2022-12-07T06:21:59;1.27;;;1.23;;
13693;SDS011;6919;52.344;14.518;2022-12-07T06:24:28;4.13;;;1.63;;
13693;SDS011;6919;52.344;14.518;2022-12-07T06:26:57;1.80;;;0.80;;
13693;SDS011;6919;52.344;14.518;2022-12-07T06:29:25;1.73;;;1.63;;
13693;SDS011;6919;52.344;14.518;2022-12-07T06:31:53;1.43;;;1.33;;
13693;SDS011;6919;52.344;14.518;2022-12-07T06:34:23;2.10;;;1.27;;
13693;SDS011;6919;52.344;14.518;2022-12-07T06:36:54;0.70;;;0.70;;
13693;SDS011;6919;52.344;14.518;2022-12-07T06:39:23;0.53;;;0.53;;
13693;SDS011;6919;52.344;14.518;2022-12-07T06:41:54;1.40;;;1.30;;
13693;SDS011;6919;52.344;14.518;2022-12-07T06:44:23;1.73;;;1.63;;
13693;SDS011;6919;52.344;14.518;2022-12-07T06:46:52;3.03;;;1.83;;
13693;SDS011;6919;52.344;14.518;2022-12-07T06:49:42;1.67;;;0.90;;
13693;SDS011;6919;52.344;14.518;2022-12-07T06:52:10;1.00;;;1.00;;
13693;SDS011;6919;52.344;14.518;2022-12-07T06:54:38;2.10;;;0.90;;
13693;SDS011;6919;52.344;14.518;2022-12-07T06:57:06;1.03;;;1.03;;
13693;SDS011;6919;52.344;14.518;2022-12-07T06:59:35;1.53;;;1.20;;
13693;SDS011;6919;52.344;14.518;2022-12-07T07:02:03;1.17;;;1.07;;
13693;SDS011;6919;52.344;14.518;2022-12-07T07:04:31;1.33;;;1.27;;
13693;SDS011;6919;52.344;14.518;2022-12-07T07:07:04;0.97;;;0.97;;
13693;SDS011;6919;52.344;14.518;2022-12-07T07:09:32;1.10;;;1.00;;
13693;SDS011;6919;52.344;14.518;2022-12-07T07:12:00;1.50;;;1.40;;
13693;SDS011;6919;52.344;14.518;2022-12-07T07:14:28;1.33;;;1.23;;
13693;SDS011;6919;52.344;14.518;2022-12-07T07:16:57;1.07;;;0.90;;
13693;SDS011;6919;52.344;14.518;2022-12-07T07:19:25;2.73;;;1.10;;
13693;SDS011;6919;52.344;14.518;2022-12-07T07:21:53;2.33;;;1.20;;
13693;SDS011;6919;52.344;14.518;2022-12-07T07:24:23;1.33;;;1.23;;
13693;SDS011;6919;52.344;14.518;2022-12-07T07:26:51;2.00;;;1.90;;
13693;SDS011;6919;52.344;14.518;2022-12-07T07:29:19;0.70;;;0.70;;
13693;SDS011;6919;52.344;14.518;2022-12-07T07:31:48;1.20;;;1.20;;
13693;SDS011;6919;52.344;14.518;2022-12-07T07:34:16;1.10;;;1.10;;
13693;SDS011;6919;52.344;14.518;2022-12-07T07:36:44;0.70;;;0.70;;
13693;SDS011;6919;52.344;14.518;2022-12-07T07:39:13;0.50;;;0.50;;
13693;SDS011;6919;52.344;14.518;2022-12-07T07:41:43;1.03;;;1.03;;
13693;SDS011;6919;52.344;14.518;2022-12-07T07:44:11;1.33;;;1.23;;
13693;SDS011;6919;52.344;14.518;2022-12-07T07:46:39;1.47;;;0.90;;
13693;SDS011;6919;52.344;14.518;2022-12-07T07:49:08;2.40;;;1.33;;
13693;SDS011;6919;52.344;14.518;2022-12-07T07:51:37;0.67;;;0.67;;
13693;SDS011;6919;52.344;14.518;2022-12-07T07:54:05;0.60;;;0.60;;
13693;SDS011;6919;52.344;14.518;2022-12-07T07:56:33;1.33;;;1.07;;
13693;SDS011;6919;52.344;14.518;2022-12-07T07:59:03;1.13;;;1.03;;
13693;SDS011;6919;52.344;14.518;2022-12-07T08:01:31;0.67;;;0.67;;
13693;SDS011;6919;52.344;14.518;2022-12-07T08:04:00;1.00;;;1.00;;
13693;SDS011;6919;52.344;14.518;2022-12-07T08:06:28;1.03;;;1.03;;
13693;SDS011;6919;52.344;14.518;2022-12-07T08:08:57;3.43;;;1.83;;
13693;SDS011;6919;52.344;14.518;2022-12-07T08:11:26;1.33;;;0.90;;
13693;SDS011;6919;52.344;14.518;2022-12-07T08:13:54;0.70;;;0.70;;
13693;SDS011;6919;52.344;14.518;2022-12-07T08:16:24;0.67;;;0.67;;
13693;SDS011;6919;52.344;14.518;2022-12-07T08:18:52;1.80;;;1.37;;
13693;SDS011;6919;52.344;14.518;2022-12-07T08:21:21;1.47;;;1.37;;
13693;SDS011;6919;52.344;14.518;2022-12-07T08:23:49;2.43;;;2.07;;
13693;SDS011;6919;52.344;14.518;2022-12-07T08:26:17;4.93;;;2.07;;
13693;SDS011;6919;52.344;14.518;2022-12-07T08:28:45;3.03;;;1.07;;
13693;SDS011;6919;52.344;14.518;2022-12-07T08:31:15;1.37;;;1.27;;
13693;SDS011;6919;52.344;14.518;2022-12-07T08:33:47;1.40;;;1.30;;
13693;SDS011;6919;52.344;14.518;2022-12-07T08:36:16;1.00;;;1.00;;
13693;SDS011;6919;52.344;14.518;2022-12-07T08:38:44;1.40;;;1.30;;
13693;SDS011;6919;52.344;14.518;2022-12-07T08:41:33;1.70;;;1.53;;
13693;SDS011;6919;52.344;14.518;2022-12-07T08:44:02;0.83;;;0.83;;
13693;SDS011;6919;52.344;14.518;2022-12-07T08:46:31;1.13;;;1.13;;
13693;SDS011;6919;52.344;14.518;2022-12-07T08:49:06;1.10;;;1.10;;
13693;SDS011;6919;52.344;14.518;2022-12-07T08:51:40;1.23;;;1.00;;
13693;SDS011;6919;52.344;14.518;2022-12-07T08:54:10;0.83;;;0.83;;
13693;SDS011;6919;52.344;14.518;2022-12-07T08:56:44;0.90;;;0.90;;
13693;SDS011;6919;52.344;14.518;2022-12-07T08:59:22;1.43;;;1.33;;
13693;SDS011;6919;52.344;14.518;2022-12-07T09:01:51;0.67;;;0.67;;
13693;SDS011;6919;52.344;14.518;2022-12-07T09:04:21;2.60;;;2.40;;
13693;SDS011;6919;52.344;14.518;2022-12-07T09:06:49;1.70;;;1.60;;
13693;SDS011;6919;52.344;14.518;2022-12-07T09:09:18;1.10;;;1.10;;
13693;SDS011;6919;52.344;14.518;2022-12-07T09:11:46;1.73;;;1.03;;
13693;SDS011;6919;52.344;14.518;2022-12-07T09:14:14;3.00;;;2.50;;
13693;SDS011;6919;52.344;14.518;2022-12-07T09:16:43;1.63;;;1.10;;
13693;SDS011;6919;52.344;14.518;2022-12-07T09:19:11;3.17;;;1.77;;
13693;SDS011;6919;52.344;14.518;2022-12-07T09:21:41;1.50;;;1.40;;
13693;SDS011;6919;52.344;14.518;2022-12-07T09:24:11;0.70;;;0.70;;
13693;SDS011;6919;52.344;14.518;2022-12-07T09:26:39;1.33;;;1.23;;
13693;SDS011;6919;52.344;14.518;2022-12-07T09:29:07;1.40;;;1.30;;
13693;SDS011;6919;52.344;14.518;2022-12-07T09:31:36;0.83;;;0.83;;
13693;SDS011;6919;52.344;14.518;2022-12-07T09:34:04;1.10;;;1.00;;
13693;SDS011;6919;52.344;14.518;2022-12-07T09:36:33;1.03;;;0.93;;
13693;SDS011;6919;52.344;14.518;2022-12-07T09:39:03;0.60;;;0.60;;
13693;SDS011;6919;52.344;14.518;2022-12-07T09:41:31;0.63;;;0.63;;
13693;SDS011;6919;52.344;14.518;2022-12-07T09:44:03;1.07;;;1.07;;
13693;SDS011;6919;52.344;14.518;2022-12-07T09:46:34;1.00;;;1.00;;
13693;SDS011;6919;52.344;14.518;2022-12-07T09:49:08;0.80;;;0.80;;
13693;SDS011;6919;52.344;14.518;2022-12-07T09:51:42;2.57;;;1.87;;
13693;SDS011;6919;52.344;14.518;2022-12-07T09:54:12;0.87;;;0.87;;
13693;SDS011;6919;52.344;14.518;2022-12-07T09:56:46;1.00;;;1.00;;
13693;SDS011;6919;52.344;14.518;2022-12-07T09:59:16;1.50;;;0.90;;
13693;SDS011;6919;52.344;14.518;2022-12-07T10:01:47;0.40;;;0.40;;
13693;SDS011;6919;52.344;14.518;2022-12-07T10:04:18;0.63;;;0.63;;
13693;SDS011;6919;52.344;14.518;2022-12-07T10:06:49;0.73;;;0.70;;
13693;SDS011;6919;52.344;14.518;2022-12-07T10:09:20;0.50;;;0.50;;
13693;SDS011;6919;52.344;14.518;2022-12-07T10:11:57;0.70;;;0.70;;
13693;SDS011;6919;52.344;14.518;2022-12-07T10:14:32;0.50;;;0.50;;
13693;SDS011;6919;52.344;14.518;2022-12-07T10:17:28;0.47;;;0.47;;
13693;SDS011;6919;52.344;14.518;2022-12-07T10:20:18;0.57;;;0.57;;
13693;SDS011;6919;52.344;14.518;2022-12-07T10:22:54;0.80;;;0.50;;
13693;SDS011;6919;52.344;14.518;2022-12-07T10:25:27;0.70;;;0.70;;
13693;SDS011;6919;52.344;14.518;2022-12-07T10:28:00;0.53;;;0.53;;
13693;SDS011;6919;52.344;14.518;2022-12-07T10:30:50;0.40;;;0.40;;
13693;SDS011;6919;52.344;14.518;2022-12-07T10:33:29;0.60;;;0.60;;
13693;SDS011;6919;52.344;14.518;2022-12-07T10:36:09;0.30;;;0.30;;
13693;SDS011;6919;52.344;14.518;2022-12-07T10:38:47;0.40;;;0.40;;
13693;SDS011;6919;52.344;14.518;2022-12-07T10:41:18;0.57;;;0.57;;
13693;SDS011;6919;52.344;14.518;2022-12-07T10:43:51;0.20;;;0.20;;
13693;SDS011;6919;52.344;14.518;2022-12-07T10:46:32;0.50;;;0.50;;
13693;SDS011;6919;52.344;14.518;2022-12-07T10:49:49;0.67;;;0.67;;
13693;SDS011;6919;52.344;14.518;2022-12-07T10:52:45;0.77;;;0.77;;
13693;SDS011;6919;52.344;14.518;2022-12-07T10:55:38;0.30;;;0.30;;
13693;SDS011;6919;52.344;14.518;2022-12-07T10:58:39;0.47;;;0.47;;
13693;SDS011;6919;52.344;14.518;2022-12-07T11:01:28;0.40;;;0.40;;
13693;SDS011;6919;52.344;14.518;2022-12-07T11:04:11;0.43;;;0.43;;
13693;SDS011;6919;52.344;14.518;2022-12-07T11:06:54;0.30;;;0.30;;
13693;SDS011;6919;52.344;14.518;2022-12-07T11:09:40;0.33;;;0.33;;
13693;SDS011;6919;52.344;14.518;2022-12-07T11:12:47;0.57;;;0.57;;
13693;SDS011;6919;52.344;14.518;2022-12-07T11:15:42;0.30;;;0.30;;
13693;SDS011;6919;52.344;14.518;2022-12-07T11:18:29;0.40;;;0.40;;
13693;SDS011;6919;52.344;14.518;2022-12-07T11:21:12;0.20;;;0.20;;
13693;SDS011;6919;52.344;14.518;2022-12-07T11:23:53;0.20;;;0.20;;
13693;SDS011;6919;52.344;14.518;2022-12-07T11:26:34;0.30;;;0.30;;
13693;SDS011;6919;52.344;14.518;2022-12-07T11:29:26;0.50;;;0.50;;
13693;SDS011;6919;52.344;14.518;2022-12-07T11:32:17;0.40;;;0.40;;
13693;SDS011;6919;52.344;14.518;2022-12-07T11:35:08;0.40;;;0.40;;
13693;SDS011;6919;52.344;14.518;2022-12-07T11:37:47;0.37;;;0.37;;
13693;SDS011;6919;52.344;14.518;2022-12-07T11:40:20;0.40;;;0.40;;
13693;SDS011;6919;52.344;14.518;2022-12-07T11:42:56;0.63;;;0.63;;
13693;SDS011;6919;52.344;14.518;2022-12-07T11:45:29;0.40;;;0.40;;
13693;SDS011;6919;52.344;14.518;2022-12-07T11:48:03;0.40;;;0.40;;
13693;SDS011;6919;52.344;14.518;2022-12-07T11:50:42;0.40;;;0.40;;
13693;SDS011;6919;52.344;14.518;2022-12-07T11:53:18;0.37;;;0.37;;
13693;SDS011;6919;52.344;14.518;2022-12-07T11:55:54;0.50;;;0.50;;
13693;SDS011;6919;52.344;14.518;2022-12-07T11:58:41;0.30;;;0.30;;
13693;SDS011;6919;52.344;14.518;2022-12-07T12:01:22;0.40;;;0.40;;
13693;SDS011;6919;52.344;14.518;2022-12-07T12:04:16;0.40;;;0.40;;
13693;SDS011;6919;52.344;14.518;2022-12-07T12:07:01;0.40;;;0.40;;
13693;SDS011;6919;52.344;14.518;2022-12-07T12:09:54;0.50;;;0.50;;
13693;SDS011;6919;52.344;14.518;2022-12-07T12:12:37;0.47;;;0.47;;
13693;SDS011;6919;52.344;14.518;2022-12-07T12:16:01;0.93;;;0.67;;
13693;SDS011;6919;52.344;14.518;2022-12-07T12:21:53;0.30;;;0.30;;
13693;SDS011;6919;52.344;14.518;2022-12-07T12:24:31;0.53;;;0.53;;
13693;SDS011;6919;52.344;14.518;2022-12-07T12:27:03;1.00;;;0.97;;
13693;SDS011;6919;52.344;14.518;2022-12-07T12:29:38;0.50;;;0.50;;
13693;SDS011;6919;52.344;14.518;2022-12-07T12:32:17;0.40;;;0.40;;
13693;SDS011;6919;52.344;14.518;2022-12-07T12:35:01;0.40;;;0.40;;
13693;SDS011;6919;52.344;14.518;2022-12-07T12:37:54;0.50;;;0.50;;
13693;SDS011;6919;52.344;14.518;2022-12-07T12:40:43;0.30;;;0.30;;
13693;SDS011;6919;52.344;14.518;2022-12-07T13:01:56;0.50;;;0.50;;
13693;SDS011;6919;52.344;14.518;2022-12-07T13:04:51;0.30;;;0.30;;
13693;SDS011;6919;52.344;14.518;2022-12-07T13:10:35;0.30;;;0.30;;
13693;SDS011;6919;52.344;14.518;2022-12-07T13:13:28;0.37;;;0.37;;
13693;SDS011;6919;52.344;14.518;2022-12-07T13:28:44;0.60;;;0.60;;
13693;SDS011;6919;52.344;14.518;2022-12-07T13:31:18;0.53;;;0.53;;
13693;SDS011;6919;52.344;14.518;2022-12-07T13:33:58;0.40;;;0.40;;
13693;SDS011;6919;52.344;14.518;2022-12-07T13:36:29;0.50;;;0.50;;
13693;SDS011;6919;52.344;14.518;2022-12-07T13:39:18;0.40;;;0.40;;
13693;SDS011;6919;52.344;14.518;2022-12-07T13:41:50;0.30;;;0.30;;
13693;SDS011;6919;52.344;14.518;2022-12-07T13:44:21;0.40;;;0.40;;
13693;SDS011;6919;52.344;14.518;2022-12-07T13:46:54;0.60;;;0.60;;
13693;SDS011;6919;52.344;14.518;2022-12-07T13:49:32;0.30;;;0.30;;
13693;SDS011;6919;52.344;14.518;2022-12-07T13:52:12;0.50;;;0.50;;
13693;SDS011;6919;52.344;14.518;2022-12-07T13:54:47;1.70;;;1.07;;
13693;SDS011;6919;52.344;14.518;2022-12-07T13:57:17;0.30;;;0.30;;
13693;SDS011;6919;52.344;14.518;2022-12-07T13:59:46;0.50;;;0.50;;
13693;SDS011;6919;52.344;14.518;2022-12-07T14:02:18;0.30;;;0.30;;
13693;SDS011;6919;52.344;14.518;2022-12-07T14:04:49;0.40;;;0.40;;
13693;SDS011;6919;52.344;14.518;2022-12-07T14:07:19;0.57;;;0.57;;
13693;SDS011;6919;52.344;14.518;2022-12-07T14:09:59;0.40;;;0.40;;
13693;SDS011;6919;52.344;14.518;2022-12-07T14:12:30;1.53;;;0.70;;
13693;SDS011;6919;52.344;14.518;2022-12-07T14:15:03;0.50;;;0.50;;
13693;SDS011;6919;52.344;14.518;2022-12-07T14:17:32;0.70;;;0.70;;
13693;SDS011;6919;52.344;14.518;2022-12-07T14:20:03;0.53;;;0.53;;
13693;SDS011;6919;52.344;14.518;2022-12-07T14:22:56;0.50;;;0.50;;
13693;SDS011;6919;52.344;14.518;2022-12-07T14:25:26;0.40;;;0.40;;
13693;SDS011;6919;52.344;14.518;2022-12-07T14:27:55;0.40;;;0.40;;
13693;SDS011;6919;52.344;14.518;2022-12-07T14:30:26;0.50;;;0.50;;
13693;SDS011;6919;52.344;14.518;2022-12-07T14:32:58;0.40;;;0.40;;
13693;SDS011;6919;52.344;14.518;2022-12-07T14:35:29;0.70;;;0.70;;
13693;SDS011;6919;52.344;14.518;2022-12-07T14:37:59;0.50;;;0.50;;
13693;SDS011;6919;52.344;14.518;2022-12-07T14:40:29;0.50;;;0.50;;
13693;SDS011;6919;52.344;14.518;2022-12-07T14:42:58;0.30;;;0.30;;
13693;SDS011;6919;52.344;14.518;2022-12-07T14:45:30;0.33;;;0.33;;
13693;SDS011;6919;52.344;14.518;2022-12-07T14:47:58;0.50;;;0.50;;
13693;SDS011;6919;52.344;14.518;2022-12-07T14:50:48;0.30;;;0.30;;
13693;SDS011;6919;52.344;14.518;2022-12-07T14:53:40;0.40;;;0.40;;
13693;SDS011;6919;52.344;14.518;2022-12-07T14:56:21;0.57;;;0.57;;
13693;SDS011;6919;52.344;14.518;2022-12-07T14:58:50;0.40;;;0.40;;
13693;SDS011;6919;52.344;14.518;2022-12-07T15:01:18;0.63;;;0.63;;
13693;SDS011;6919;52.344;14.518;2022-12-07T15:03:47;0.50;;;0.50;;
13693;SDS011;6919;52.344;14.518;2022-12-07T15:06:16;0.40;;;0.40;;
13693;SDS011;6919;52.344;14.518;2022-12-07T15:08:45;0.63;;;0.63;;
13693;SDS011;6919;52.344;14.518;2022-12-07T15:11:14;0.83;;;0.83;;
13693;SDS011;6919;52.344;14.518;2022-12-07T15:13:45;0.40;;;0.40;;
13693;SDS011;6919;52.344;14.518;2022-12-07T15:16:30;0.70;;;0.70;;
13693;SDS011;6919;52.344;14.518;2022-12-07T15:19:20;0.60;;;0.60;;
13693;SDS011;6919;52.344;14.518;2022-12-07T15:21:54;0.50;;;0.50;;
13693;SDS011;6919;52.344;14.518;2022-12-07T15:24:24;0.30;;;0.30;;
13693;SDS011;6919;52.344;14.518;2022-12-07T15:26:53;0.40;;;0.40;;
13693;SDS011;6919;52.344;14.518;2022-12-07T15:29:23;0.70;;;0.70;;
13693;SDS011;6919;52.344;14.518;2022-12-07T15:31:51;0.40;;;0.40;;
13693;SDS011;6919;52.344;14.518;2022-12-07T15:34:23;0.50;;;0.50;;
13693;SDS011;6919;52.344;14.518;2022-12-07T15:36:52;0.60;;;0.60;;
13693;SDS011;6919;52.344;14.518;2022-12-07T15:39:21;0.30;;;0.30;;
13693;SDS011;6919;52.344;14.518;2022-12-07T15:41:49;0.60;;;0.60;;
13693;SDS011;6919;52.344;14.518;2022-12-07T15:44:17;0.40;;;0.40;;
13693;SDS011;6919;52.344;14.518;2022-12-07T15:47:05;0.43;;;0.43;;
13693;SDS011;6919;52.344;14.518;2022-12-07T15:49:33;0.53;;;0.53;;
13693;SDS011;6919;52.344;14.518;2022-12-07T15:52:02;0.93;;;0.93;;
13693;SDS011;6919;52.344;14.518;2022-12-07T15:54:31;0.60;;;0.60;;
13693;SDS011;6919;52.344;14.518;2022-12-07T15:56:59;0.40;;;0.40;;
13693;SDS011;6919;52.344;14.518;2022-12-07T15:59:28;0.43;;;0.43;;
13693;SDS011;6919;52.344;14.518;2022-12-07T16:01:56;0.40;;;0.40;;
13693;SDS011;6919;52.344;14.518;2022-12-07T16:04:27;0.60;;;0.60;;
13693;SDS011;6919;52.344;14.518;2022-12-07T16:06:56;0.60;;;0.60;;
13693;SDS011;6919;52.344;14.518;2022-12-07T16:09:25;0.50;;;0.50;;
13693;SDS011;6919;52.344;14.518;2022-12-07T16:11:54;0.50;;;0.50;;